LJMB/MBX METAR and TAF weather

Enter ICAO airport designator
Station Type Date Time Source
LJMB METAR 2020/02/25 12:30 UTC NOAA

LJMB 251230Z 23017KT 9999 FEW035 SCT250 15/07 Q1005


Station Type Date Time Source
LJMB Decoded METAR 2020/02/25 12:30 UTC NOAA

Maribor / Slivnica, Slovenia (LJMB) 46-29N 015-41E 265M
Feb 25, 2020 - 07:30 AM EST / 2020.02.25 1230 UTC
Wind: from the SW (230 degrees) at 20 MPH (17 KT):0
Visibility: greater than 7 mile(s):0
Sky conditions: partly cloudy
Temperature: 59 F (15 C)
Dew Point: 44 F (7 C)
Relative Humidity: 58%
Pressure (altimeter): 29.68 in. Hg (1005 hPa)
ob: LJMB 251230Z 23017KT 9999 FEW035 SCT250 15/07 Q1005
cycle: 12

Station Type Date Time Source
LJMB TAF 2020/02/25 12:05 UTC NOAA

TAF LJMB 251100Z 2512/2612 19015G25KT 9999 FEW035
TEMPO 2512/2521 21020G30KT
BECMG 2521/2524 20007KT BKN040 OVC090 PROB30
TEMPO 2521/2524 -RA
BECMG 2600/2603 36005KT 7000 RA BKN025 OVC040
TEMPO 2603/2609 36010KT BKN010 OVC025
TEMPO 2607/2612 5000 SN BKN005 OVC010

Example: see airport list